Time;durP1;ratioP1;P1;durP2;ratioP2;P2;SDS_P1;SDS_P2;PMS_P1;PMS_P2;Temp;Humidity;BMP_temperature;BMP_pressure;BME280_temperature;BME280_humidity;BME280_pressure;Samples;Min_cycle;Max_cycle;Signal;HPM_P1;HPM_P2
2023/08/28 00:02:00;;;;;;;2.33;0.90;;;13.70;99.90;;;;;;5092276;28;20040;-66
2023/08/28 00:04:25;;;;;;;2.03;1.15;;;13.70;99.90;;;;;;5096705;28;20035;-66
2023/08/28 00:06:52;;;;;;;4.47;1.17;;;13.70;99.90;;;;;;5093561;28;20036;-66
2023/08/28 00:09:17;;;;;;;3.45;0.88;;;13.70;99.90;;;;;;5094059;28;20379;-66
2023/08/28 00:11:44;;;;;;;3.28;1.20;;;13.70;99.90;;;;;;5078248;28;20131;-66
2023/08/28 00:14:10;;;;;;;2.25;1.20;;;13.70;99.90;;;;;;5100695;28;20086;-66
2023/08/28 00:16:36;;;;;;;1.77;1.10;;;13.70;99.90;;;;;;5098192;28;20070;-66
2023/08/28 00:19:02;;;;;;;2.88;1.52;;;13.70;99.90;;;;;;5098404;28;20032;-66
2023/08/28 00:21:28;;;;;;;2.88;0.90;;;13.60;99.90;;;;;;5075557;28;20085;-66
2023/08/28 00:23:54;;;;;;;3.88;1.05;;;13.60;99.90;;;;;;5081145;28;20133;-66
2023/08/28 00:26:20;;;;;;;2.47;1.17;;;13.50;99.90;;;;;;5077428;28;20040;-66
2023/08/28 00:28:45;;;;;;;4.25;1.63;;;13.50;99.90;;;;;;5097272;28;20123;-66
2023/08/28 00:31:11;;;;;;;5.10;1.13;;;13.50;99.90;;;;;;5078083;28;20130;-66
2023/08/28 00:33:36;;;;;;;2.00;1.20;;;13.50;99.90;;;;;;5117519;28;20031;-66
2023/08/28 00:36:02;;;;;;;3.33;1.40;;;13.30;99.90;;;;;;5100600;28;20043;-66
2023/08/28 00:38:28;;;;;;;4.53;1.25;;;13.40;99.90;;;;;;5099425;28;20039;-66
2023/08/28 00:40:53;;;;;;;3.38;1.30;;;13.30;99.90;;;;;;5117628;27;20051;-66
2023/08/28 00:43:19;;;;;;;3.58;1.00;;;13.30;99.90;;;;;;5082693;28;20048;-66
2023/08/28 00:45:44;;;;;;;1.40;1.08;;;13.20;99.90;;;;;;5102092;28;20074;-66
2023/08/28 00:48:14;;;;;;;2.97;1.15;;;13.20;99.90;;;;;;5101545;28;20197;-66
2023/08/28 00:50:40;;;;;;;4.15;1.35;;;13.20;99.90;;;;;;5080647;28;20044;-66
2023/08/28 00:53:05;;;;;;;5.50;1.60;;;13.20;99.90;;;;;;5099997;28;20040;-66
2023/08/28 00:55:34;;;;;;;2.42;1.15;;;13.20;99.90;;;;;;5099217;28;20165;-66
2023/08/28 00:58:00;;;;;;;2.58;1.20;;;13.10;99.90;;;;;;5083950;28;20055;-66
2023/08/28 01:00:26;;;;;;;2.22;1.05;;;13.10;99.90;;;;;;5102995;28;20052;-66
2023/08/28 01:02:52;;;;;;;2.00;1.08;;;13.10;99.90;;;;;;5102396;28;20044;-66
2023/08/28 01:05:20;;;;;;;2.45;1.48;;;13.00;99.90;;;;;;5100595;28;20035;-66
2023/08/28 01:08:04;;;;;;;1.20;0.90;;;13.00;99.90;;;;;;5079410;28;20093;-66
2023/08/28 01:10:46;;;;;;;2.28;1.33;;;12.90;99.90;;;;;;5079466;28;20032;-66
2023/08/28 01:13:37;;;;;;;4.38;1.60;;;12.90;99.90;;;;;;5097502;28;20398;-66
2023/08/28 01:16:04;;;;;;;5.05;1.40;;;12.80;99.90;;;;;;5081846;28;20479;-66
2023/08/28 01:18:30;;;;;;;3.08;1.75;;;12.80;99.90;;;;;;5084127;28;20059;-66
2023/08/28 01:20:57;;;;;;;1.33;1.13;;;12.80;99.90;;;;;;5101941;28;20036;-66
2023/08/28 01:23:46;;;;;;;3.95;2.10;;;12.80;99.90;;;;;;5079483;28;20118;-66
2023/08/28 01:26:12;;;;;;;3.10;1.88;;;12.80;99.90;;;;;;5079196;28;20044;-66
2023/08/28 01:28:38;;;;;;;2.03;1.20;;;12.80;99.90;;;;;;5083548;28;20044;-66
2023/08/28 01:31:06;;;;;;;4.70;1.65;;;12.70;99.90;;;;;;5097263;28;20044;-66
2023/08/28 01:33:34;;;;;;;4.40;1.15;;;12.60;99.90;;;;;;5101364;28;20040;-66
2023/08/28 01:36:27;;;;;;;2.65;1.20;;;12.80;99.90;;;;;;5096453;28;20051;-66
2023/08/28 01:38:59;;;;;;;2.65;1.15;;;12.60;99.90;;;;;;5097512;28;20036;-66
2023/08/28 01:41:26;;;;;;;2.13;1.30;;;12.60;99.90;;;;;;5098507;28;20043;-66
2023/08/28 01:43:56;;;;;;;1.33;0.85;;;12.50;99.90;;;;;;5079940;28;20048;-66
2023/08/28 01:46:22;;;;;;;2.70;1.00;;;12.60;99.90;;;;;;5098874;28;20034;-66
2023/08/28 01:48:52;;;;;;;5.07;1.33;;;12.50;99.90;;;;;;5098076;28;20123;-66
2023/08/28 01:51:18;;;;;;;2.60;1.60;;;12.50;99.90;;;;;;5100408;28;20431;-66
2023/08/28 01:53:45;;;;;;;3.15;1.75;;;12.40;99.90;;;;;;5077496;28;20138;-66
2023/08/28 01:56:10;;;;;;;2.70;1.50;;;12.40;99.90;;;;;;5081246;28;20092;-66
2023/08/28 01:58:44;;;;;;;5.03;1.77;;;12.40;99.90;;;;;;5097785;28;20036;-66
2023/08/28 02:01:10;;;;;;;1.98;1.40;;;12.40;99.90;;;;;;5112054;27;20044;-66
2023/08/28 02:03:38;;;;;;;2.88;1.52;;;12.40;99.90;;;;;;5100308;28;20119;-66
2023/08/28 02:06:04;;;;;;;3.40;1.42;;;12.40;99.90;;;;;;5102369;28;20051;-66
2023/08/28 02:08:30;;;;;;;4.88;2.35;;;12.40;99.90;;;;;;5081745;28;20152;-66
2023/08/28 02:10:55;;;;;;;5.15;2.30;;;12.30;99.90;;;;;;5094881;28;20077;-66
2023/08/28 02:13:21;;;;;;;3.15;1.88;;;12.40;99.90;;;;;;5083329;28;20075;-66
2023/08/28 02:15:47;;;;;;;2.97;2.28;;;12.40;99.90;;;;;;5101959;28;20035;-66
2023/08/28 02:18:12;;;;;;;2.83;2.45;;;12.40;99.90;;;;;;5097924;28;20106;-66
2023/08/28 02:20:38;;;;;;;3.50;2.13;;;12.40;99.90;;;;;;5096753;28;20032;-66
2023/08/28 02:23:04;;;;;;;3.80;2.10;;;12.50;99.90;;;;;;5079902;28;20051;-66
2023/08/28 02:25:29;;;;;;;5.78;2.33;;;12.50;99.90;;;;;;5080502;28;20028;-66
2023/08/28 02:27:55;;;;;;;3.42;2.75;;;12.50;99.90;;;;;;5099072;28;20047;-66
2023/08/28 02:30:20;;;;;;;3.35;2.30;;;12.40;99.90;;;;;;5082130;28;20065;-66
2023/08/28 02:32:46;;;;;;;3.33;2.92;;;12.50;99.90;;;;;;5099933;28;20036;-66
2023/08/28 02:35:12;;;;;;;3.00;2.47;;;12.50;99.90;;;;;;5098038;28;20118;-66
2023/08/28 02:37:38;;;;;;;5.78;3.42;;;12.50;99.90;;;;;;5111552;27;20188;-66
2023/08/28 02:40:05;;;;;;;3.75;3.42;;;12.50;99.90;;;;;;5097547;28;20066;-66
2023/08/28 02:42:31;;;;;;;3.85;3.00;;;12.50;99.90;;;;;;5099262;28;20036;-66
2023/08/28 02:44:56;;;;;;;3.67;3.38;;;12.50;99.90;;;;;;5099572;28;20721;-66
2023/08/28 02:47:22;;;;;;;4.38;3.22;;;12.50;99.90;;;;;;5094572;28;20032;-66
2023/08/28 02:49:48;;;;;;;3.97;3.42;;;12.50;99.90;;;;;;5083528;28;20089;-66
2023/08/28 02:52:14;;;;;;;4.97;2.92;;;12.50;99.90;;;;;;5100805;28;20040;-66
2023/08/28 02:54:39;;;;;;;3.50;3.15;;;12.50;99.90;;;;;;5095822;28;20032;-66
2023/08/28 02:57:05;;;;;;;7.00;4.30;;;12.50;99.90;;;;;;5077168;28;20040;-66
2023/08/28 02:59:31;;;;;;;5.82;4.65;;;12.50;99.90;;;;;;5073158;28;20067;-66
2023/08/28 03:01:57;;;;;;;5.40;4.90;;;12.50;99.90;;;;;;5095945;28;20191;-66
2023/08/28 03:04:22;;;;;;;7.47;4.82;;;12.50;99.90;;;;;;5098537;28;20036;-66
2023/08/28 03:06:48;;;;;;;6.55;5.43;;;12.60;99.90;;;;;;5096395;28;20539;-66
2023/08/28 03:09:14;;;;;;;6.15;5.45;;;12.60;99.90;;;;;;5096448;28;20044;-66
2023/08/28 03:11:40;;;;;;;5.75;5.25;;;12.60;99.90;;;;;;5080827;28;20035;-66
2023/08/28 03:14:06;;;;;;;6.93;5.90;;;12.70;99.90;;;;;;5118233;27;20497;-66
2023/08/28 03:16:32;;;;;;;8.55;5.65;;;12.60;99.90;;;;;;5100988;28;20070;-66
2023/08/28 03:18:57;;;;;;;6.03;5.53;;;12.70;99.90;;;;;;5077571;28;20071;-66
2023/08/28 03:21:23;;;;;;;6.40;5.80;;;12.70;99.90;;;;;;5078438;28;20053;-66
2023/08/28 03:23:49;;;;;;;7.10;5.65;;;12.60;99.90;;;;;;5098823;28;20167;-66
2023/08/28 03:26:14;;;;;;;8.25;5.95;;;12.60;99.90;;;;;;5099893;28;20089;-66
2023/08/28 03:28:40;;;;;;;6.25;5.65;;;12.70;99.90;;;;;;5113082;27;20039;-66
2023/08/28 03:31:06;;;;;;;6.57;6.00;;;12.60;99.90;;;;;;5078053;28;20043;-66
2023/08/28 03:33:31;;;;;;;6.93;6.13;;;12.60;99.90;;;;;;5081414;28;20036;-66
2023/08/28 03:35:59;;;;;;;6.85;5.38;;;12.60;99.90;;;;;;5080416;28;20039;-66
2023/08/28 03:38:24;;;;;;;6.45;5.85;;;12.70;99.90;;;;;;5095701;28;20153;-66
2023/08/28 03:40:51;;;;;;;6.05;5.50;;;12.60;99.90;;;;;;5099861;28;20496;-66
2023/08/28 03:43:17;;;;;;;6.65;4.38;;;12.60;99.90;;;;;;5098634;28;20036;-66
2023/08/28 03:45:42;;;;;;;6.32;4.85;;;12.60;99.90;;;;;;5077547;28;20059;-66
2023/08/28 03:48:08;;;;;;;6.22;5.53;;;12.50;99.90;;;;;;5094978;28;20040;-66
2023/08/28 03:50:34;;;;;;;9.27;6.25;;;12.50;99.90;;;;;;5097642;28;20024;-66
2023/08/28 03:53:01;;;;;;;5.63;5.05;;;12.50;99.90;;;;;;5077867;28;20100;-66
2023/08/28 03:55:30;;;;;;;5.40;4.75;;;12.40;99.90;;;;;;5077340;28;20351;-66
2023/08/28 03:57:57;;;;;;;5.93;5.43;;;12.40;99.90;;;;;;5076505;28;20115;-66
2023/08/28 04:00:24;;;;;;;8.93;5.50;;;12.40;99.90;;;;;;5079531;28;20035;-66
2023/08/28 04:02:50;;;;;;;6.20;4.43;;;12.40;99.90;;;;;;5079557;28;20048;-66
2023/08/28 04:05:16;;;;;;;5.15;4.75;;;12.30;99.90;;;;;;5078336;28;20040;-65
2023/08/28 04:07:43;;;;;;;5.30;4.32;;;12.20;99.90;;;;;;5096274;28;20113;-66
2023/08/28 04:10:09;;;;;;;6.43;4.78;;;12.20;99.90;;;;;;5093076;28;20081;-65
2023/08/28 04:12:35;;;;;;;4.93;4.57;;;12.10;99.90;;;;;;5091847;28;20455;-66
2023/08/28 04:15:00;;;;;;;4.40;4.07;;;12.10;99.90;;;;;;5091889;28;20078;-65
2023/08/28 04:17:26;;;;;;;5.28;4.78;;;12.10;99.90;;;;;;5084269;28;20131;-65
2023/08/28 04:19:54;;;;;;;4.80;4.32;;;12.00;99.90;;;;;;5104189;28;20040;-66
2023/08/28 04:22:21;;;;;;;4.53;4.22;;;12.00;99.90;;;;;;5103224;28;20036;-66
2023/08/28 04:24:49;;;;;;;5.88;5.18;;;12.00;99.90;;;;;;5103632;28;20390;-65
2023/08/28 04:27:14;;;;;;;5.18;4.68;;;12.00;99.90;;;;;;5084238;28;20082;-65
2023/08/28 04:29:40;;;;;;;5.18;4.70;;;12.00;99.90;;;;;;5119416;27;20071;-66
2023/08/28 04:32:06;;;;;;;6.07;5.55;;;11.90;99.90;;;;;;5090006;28;20094;-66
2023/08/28 04:34:32;;;;;;;5.72;5.10;;;11.90;99.90;;;;;;5089339;28;20035;-66
2023/08/28 04:36:58;;;;;;;5.53;4.80;;;11.90;99.90;;;;;;5083796;28;20043;-66
2023/08/28 04:39:23;;;;;;;5.43;5.03;;;11.90;99.90;;;;;;5116521;27;20126;-65
2023/08/28 04:41:50;;;;;;;5.35;4.85;;;11.80;99.90;;;;;;5104026;28;20032;-66
2023/08/28 04:44:15;;;;;;;6.57;5.75;;;11.80;99.90;;;;;;5062333;28;20043;-66
2023/08/28 04:46:41;;;;;;;6.45;5.95;;;11.70;99.90;;;;;;5086062;28;20275;-66
2023/08/28 04:49:06;;;;;;;5.90;5.20;;;11.80;99.90;;;;;;5100974;28;20044;-66
2023/08/28 04:51:32;;;;;;;6.70;5.60;;;11.80;99.90;;;;;;5083300;28;20047;-65
2023/08/28 04:53:58;;;;;;;5.35;4.85;;;11.80;99.90;;;;;;5066023;28;20039;-66
2023/08/28 04:56:23;;;;;;;5.55;5.05;;;11.80;99.90;;;;;;5090212;28;20097;-66
2023/08/28 04:58:49;;;;;;;6.57;5.82;;;11.80;99.90;;;;;;5106521;28;20505;-66
2023/08/28 05:01:15;;;;;;;5.57;5.18;;;11.90;99.90;;;;;;5102414;28;20108;-66
2023/08/28 05:03:40;;;;;;;5.85;5.38;;;11.90;99.90;;;;;;5099833;28;20040;-66
2023/08/28 05:06:06;;;;;;;6.13;5.13;;;12.00;99.90;;;;;;5099130;28;20051;-65
2023/08/28 05:08:32;;;;;;;5.45;4.95;;;11.90;99.90;;;;;;5097424;28;20088;-66
2023/08/28 05:10:57;;;;;;;6.43;5.60;;;11.90;99.90;;;;;;5120748;27;20083;-66
2023/08/28 05:13:23;;;;;;;6.20;5.28;;;12.00;99.90;;;;;;5104436;28;20047;-65
2023/08/28 05:15:48;;;;;;;5.93;5.53;;;11.90;99.90;;;;;;5101664;28;20032;-66
2023/08/28 05:18:14;;;;;;;6.95;5.43;;;12.00;99.90;;;;;;5078088;28;20144;-65
2023/08/28 05:20:41;;;;;;;5.53;5.03;;;12.20;99.90;;;;;;5091659;28;20051;-66
2023/08/28 05:23:06;;;;;;;7.75;4.97;;;12.40;99.90;;;;;;5088537;28;20043;-66
2023/08/28 05:25:32;;;;;;;8.25;4.55;;;13.10;99.90;;;;;;5116500;27;20512;-66
2023/08/28 05:27:57;;;;;;;3.38;3.08;;;14.20;99.90;;;;;;5099008;28;20050;-66
2023/08/28 05:30:23;;;;;;;3.03;2.83;;;15.50;99.90;;;;;;5098296;28;20043;-66
2023/08/28 05:32:49;;;;;;;3.00;2.80;;;16.10;99.90;;;;;;5113116;27;20024;-66
2023/08/28 05:35:15;;;;;;;6.95;3.13;;;16.20;99.90;;;;;;5115173;27;20044;-66
2023/08/28 05:37:40;;;;;;;4.82;2.30;;;16.70;99.90;;;;;;5097062;28;20089;-66
2023/08/28 05:40:08;;;;;;;2.00;1.80;;;17.60;99.90;;;;;;5092327;28;20438;-66
2023/08/28 05:42:34;;;;;;;6.78;2.13;;;18.10;99.90;;;;;;5097174;28;20040;-66
2023/08/28 05:45:00;;;;;;;3.15;2.03;;;18.80;99.90;;;;;;5091877;28;20153;-66
2023/08/28 05:47:25;;;;;;;4.75;1.73;;;19.60;99.90;;;;;;5077611;28;20035;-66
2023/08/28 05:49:51;;;;;;;2.10;1.30;;;19.80;99.90;;;;;;5076571;28;20052;-66
2023/08/28 05:52:17;;;;;;;2.60;1.15;;;19.70;99.90;;;;;;5096769;28;20055;-66
2023/08/28 05:54:42;;;;;;;3.55;1.38;;;20.60;99.90;;;;;;5098570;28;20036;-66
2023/08/28 05:57:08;;;;;;;3.05;1.40;;;21.30;99.90;;;;;;5097418;28;20036;-65
2023/08/28 05:59:33;;;;;;;2.85;1.40;;;22.00;99.90;;;;;;5099097;28;20046;-66
2023/08/28 06:01:59;;;;;;;1.67;1.55;;;22.90;99.90;;;;;;5098775;28;20064;-66
2023/08/28 06:04:24;;;;;;;3.70;1.40;;;23.60;99.90;;;;;;5111657;27;20054;-66
2023/08/28 06:06:50;;;;;;;2.63;1.52;;;24.50;99.90;;;;;;5078971;28;20036;-66
2023/08/28 06:09:15;;;;;;;3.25;1.50;;;25.30;99.90;;;;;;5099621;28;20127;-66
2023/08/28 06:11:42;;;;;;;4.53;1.20;;;26.00;99.90;;;;;;5099963;28;20043;-66
2023/08/28 06:14:08;;;;;;;1.40;1.27;;;26.70;99.90;;;;;;5078549;28;20509;-66
2023/08/28 06:16:34;;;;;;;2.55;1.38;;;27.40;99.90;;;;;;5078405;28;20036;-65
2023/08/28 06:18:59;;;;;;;4.05;1.48;;;28.00;99.90;;;;;;5098395;28;20466;-66
2023/08/28 06:21:25;;;;;;;2.10;1.35;;;28.40;99.90;;;;;;5080579;28;20043;-66
2023/08/28 06:23:51;;;;;;;3.85;1.40;;;28.90;99.90;;;;;;5099019;28;20394;-65
2023/08/28 06:26:17;;;;;;;3.05;1.23;;;29.20;99.80;;;;;;5075718;28;20040;-66
2023/08/28 06:28:42;;;;;;;1.92;1.58;;;29.20;98.90;;;;;;5081081;28;20051;-65
2023/08/28 06:31:08;;;;;;;2.55;1.50;;;28.60;98.60;;;;;;5099720;28;20035;-65
2023/08/28 06:33:34;;;;;;;2.10;1.77;;;27.80;98.70;;;;;;5112056;27;20043;-65
2023/08/28 06:36:00;;;;;;;3.47;2.15;;;26.90;99.20;;;;;;5098333;28;20382;-65
2023/08/28 06:38:25;;;;;;;2.92;1.95;;;26.40;99.50;;;;;;5118077;27;20043;-65
2023/08/28 06:40:52;;;;;;;4.05;1.70;;;25.80;99.90;;;;;;5099401;28;20035;-65
2023/08/28 06:43:18;;;;;;;2.08;1.88;;;25.50;99.90;;;;;;5097019;28;20082;-65
2023/08/28 06:45:45;;;;;;;2.05;1.85;;;25.20;99.90;;;;;;5098511;28;20072;-65
2023/08/28 06:48:11;;;;;;;4.25;2.63;;;24.90;99.90;;;;;;5098703;28;20119;-65
2023/08/28 06:50:37;;;;;;;2.97;2.15;;;24.50;99.90;;;;;;5077880;28;20036;-65
2023/08/28 06:53:03;;;;;;;2.33;1.83;;;24.30;99.90;;;;;;5078366;28;20051;-65
2023/08/28 06:55:29;;;;;;;1.98;1.70;;;23.90;99.90;;;;;;5081010;28;20082;-65
2023/08/28 06:57:55;;;;;;;3.03;1.55;;;23.60;99.90;;;;;;5075179;28;20434;-65
2023/08/28 07:00:21;;;;;;;2.00;1.90;;;23.30;99.90;;;;;;5096047;28;20047;-65
2023/08/28 07:02:47;;;;;;;2.58;1.88;;;23.20;99.90;;;;;;5076253;28;20075;-65
2023/08/28 07:05:13;;;;;;;3.95;1.73;;;22.90;99.90;;;;;;5092176;28;20087;-65
2023/08/28 07:07:39;;;;;;;3.17;1.73;;;22.70;99.90;;;;;;5094026;28;20458;-65
2023/08/28 07:10:05;;;;;;;2.53;2.00;;;22.60;99.90;;;;;;5077324;28;20063;-65
2023/08/28 07:12:32;;;;;;;2.90;2.00;;;22.60;99.90;;;;;;5077082;28;20126;-65
2023/08/28 07:15:10;;;;;;;2.67;2.05;;;22.50;99.90;;;;;;5078932;28;20140;-65
2023/08/28 07:17:35;;;;;;;4.50;1.80;;;22.40;99.90;;;;;;5076193;28;20039;-65
2023/08/28 07:20:04;;;;;;;3.88;1.90;;;22.20;99.90;;;;;;5094424;28;20058;-65
2023/08/28 07:22:29;;;;;;;3.63;1.50;;;22.10;99.90;;;;;;5094939;28;20039;-65
2023/08/28 07:24:56;;;;;;;2.17;1.40;;;22.00;99.90;;;;;;5076149;28;20039;-65
2023/08/28 07:27:21;;;;;;;5.07;2.40;;;21.80;99.90;;;;;;5092858;28;20093;-65
2023/08/28 07:29:47;;;;;;;2.88;1.65;;;21.70;99.90;;;;;;5081423;28;20067;-65
2023/08/28 07:32:13;;;;;;;2.88;1.10;;;21.60;99.90;;;;;;5095753;28;20040;-65
2023/08/28 07:34:38;;;;;;;3.83;1.58;;;21.40;99.90;;;;;;5077417;28;20071;-65
2023/08/28 07:37:05;;;;;;;3.35;1.40;;;21.20;99.90;;;;;;5076012;28;20056;-65
2023/08/28 07:39:31;;;;;;;1.95;0.80;;;21.00;99.90;;;;;;5093496;28;20040;-65
2023/08/28 07:41:57;;;;;;;2.85;1.30;;;21.00;99.90;;;;;;5095716;28;20394;-65
2023/08/28 07:44:23;;;;;;;1.55;0.60;;;20.90;99.90;;;;;;5076846;28;20068;-65
2023/08/28 07:46:49;;;;;;;2.47;0.60;;;20.80;99.90;;;;;;5096233;28;20507;-65
2023/08/28 07:49:14;;;;;;;4.68;1.35;;;20.80;99.90;;;;;;5096013;28;20067;-65
2023/08/28 07:51:40;;;;;;;0.95;0.43;;;20.80;99.90;;;;;;5094665;28;20036;-65
2023/08/28 07:54:05;;;;;;;2.03;0.50;;;20.80;99.90;;;;;;5093583;28;20078;-65
2023/08/28 07:56:31;;;;;;;1.13;0.40;;;20.80;99.90;;;;;;5108871;27;20040;-65
2023/08/28 07:58:57;;;;;;;2.40;0.55;;;20.90;99.90;;;;;;5094281;28;20041;-65
2023/08/28 08:01:23;;;;;;;2.45;0.50;;;21.00;99.90;;;;;;5110064;27;20071;-65
2023/08/28 08:03:49;;;;;;;2.50;0.50;;;21.00;99.90;;;;;;5094726;28;20042;-65
2023/08/28 08:06:16;;;;;;;1.92;0.43;;;21.30;99.90;;;;;;5096515;28;20036;-65
2023/08/28 08:08:45;;;;;;;2.38;0.40;;;21.60;99.90;;;;;;5095948;28;20039;-65
2023/08/28 08:11:11;;;;;;;4.35;0.68;;;21.70;99.90;;;;;;5094567;28;20036;-65
2023/08/28 08:13:37;;;;;;;1.35;0.40;;;21.80;99.90;;;;;;5094696;28;20036;-65
2023/08/28 08:16:04;;;;;;;4.70;0.73;;;21.80;99.90;;;;;;5081263;28;20995;-66
2023/08/28 08:18:30;;;;;;;4.28;0.50;;;22.10;99.90;;;;;;5094913;28;20119;-66
2023/08/28 08:20:56;;;;;;;3.08;0.50;;;22.30;99.90;;;;;;5094227;28;20119;-66
2023/08/28 08:23:22;;;;;;;1.85;0.28;;;22.50;99.90;;;;;;5095883;28;20032;-66
2023/08/28 08:25:47;;;;;;;2.15;0.50;;;22.70;99.90;;;;;;5097441;28;20036;-66
2023/08/28 08:28:15;;;;;;;2.88;0.70;;;23.00;99.90;;;;;;5093162;28;20067;-66
2023/08/28 08:30:41;;;;;;;1.58;0.38;;;23.20;99.90;;;;;;5096702;28;20663;-66
2023/08/28 08:33:07;;;;;;;0.73;0.30;;;23.40;99.90;;;;;;5098794;28;20137;-66
2023/08/28 08:35:34;;;;;;;1.95;0.52;;;23.20;99.90;;;;;;5075210;28;20076;-66
2023/08/28 08:38:00;;;;;;;1.40;0.30;;;23.20;99.90;;;;;;5097043;28;20058;-66
2023/08/28 08:40:26;;;;;;;2.00;0.50;;;23.20;99.90;;;;;;5076551;28;20082;-67
2023/08/28 08:42:53;;;;;;;0.93;0.30;;;23.10;99.90;;;;;;5075344;28;20116;-66
2023/08/28 08:45:24;;;;;;;1.23;0.30;;;23.00;99.90;;;;;;5093173;28;20036;-67
2023/08/28 08:47:52;;;;;;;3.60;0.73;;;23.10;99.90;;;;;;5094681;28;20085;-67
2023/08/28 08:50:20;;;;;;;1.45;0.30;;;23.30;99.90;;;;;;5076416;28;20043;-67
2023/08/28 08:52:48;;;;;;;1.17;0.20;;;23.40;99.90;;;;;;5076798;28;20043;-67
2023/08/28 08:55:30;;;;;;;1.27;0.20;;;23.70;99.90;;;;;;5076004;28;20096;-67
2023/08/28 08:57:59;;;;;;;3.90;0.40;;;23.70;99.90;;;;;;5072221;28;20044;-67
2023/08/28 09:00:26;;;;;;;1.33;0.82;;;23.60;99.90;;;;;;5092231;28;20028;-67
2023/08/28 09:02:52;;;;;;;1.30;0.40;;;23.20;99.90;;;;;;5097069;28;20362;-66
2023/08/28 09:05:19;;;;;;;2.03;0.30;;;23.10;99.90;;;;;;5098834;28;20036;-66
2023/08/28 09:07:47;;;;;;;2.38;0.50;;;23.10;99.90;;;;;;5098770;28;20089;-66
2023/08/28 09:10:14;;;;;;;3.80;0.50;;;22.90;99.90;;;;;;5079390;28;20048;-67
2023/08/28 09:12:46;;;;;;;0.63;0.30;;;22.80;99.90;;;;;;5084597;28;20032;-67
2023/08/28 09:15:12;;;;;;;2.47;0.22;;;22.60;99.90;;;;;;5101969;28;20085;-67
2023/08/28 09:17:41;;;;;;;2.80;0.25;;;22.40;99.90;;;;;;5112513;27;20491;-66
2023/08/28 09:20:22;;;;;;;0.80;0.20;;;22.40;99.90;;;;;;5096172;28;20040;-67
2023/08/28 09:22:53;;;;;;;1.77;0.25;;;22.50;99.90;;;;;;5101417;28;20039;-67
2023/08/28 09:25:21;;;;;;;1.10;0.60;;;22.80;99.90;;;;;;5111253;27;20036;-67
2023/08/28 09:27:48;;;;;;;2.55;0.40;;;22.90;99.90;;;;;;5097342;28;20036;-67
2023/08/28 09:30:31;;;;;;;1.63;0.60;;;23.00;99.90;;;;;;5074441;28;20454;-67
2023/08/28 09:32:59;;;;;;;1.80;0.30;;;23.10;99.90;;;;;;5099384;28;20040;-67
2023/08/28 09:35:28;;;;;;;4.28;0.40;;;22.90;99.90;;;;;;5097687;28;20398;-66
2023/08/28 09:37:59;;;;;;;1.25;0.28;;;22.80;99.90;;;;;;5077715;28;20383;-66
2023/08/28 09:40:29;;;;;;;2.45;0.60;;;22.60;99.90;;;;;;5076534;28;20044;-66
2023/08/28 09:42:55;;;;;;;1.55;0.40;;;22.80;99.90;;;;;;5080792;28;20043;-67
2023/08/28 09:45:20;;;;;;;2.33;0.70;;;23.10;99.90;;;;;;5095734;28;20549;-66
2023/08/28 09:47:52;;;;;;;1.13;0.22;;;23.10;99.90;;;;;;5100930;28;20044;-66
2023/08/28 09:50:29;;;;;;;1.23;0.20;;;22.80;99.90;;;;;;5104647;28;20493;-66
2023/08/28 09:53:04;;;;;;;0.82;0.30;;;22.60;99.90;;;;;;5111249;27;20153;-66
2023/08/28 09:55:30;;;;;;;;;;;22.40;99.90;;;;;;5100268;28;20036;-66
2023/08/28 09:57:55;;;;;;;1.75;0.30;;;22.10;99.90;;;;;;5095451;28;19938;-66
2023/08/28 10:00:21;;;;;;;1.27;0.30;;;22.00;99.90;;;;;;5082706;28;20044;-66
2023/08/28 10:02:47;;;;;;;1.85;0.40;;;21.80;99.90;;;;;;5096265;28;20057;-65
2023/08/28 10:05:14;;;;;;;1.85;0.43;;;21.60;99.90;;;;;;5078022;28;20051;-66
2023/08/28 10:07:43;;;;;;;1.50;0.25;;;21.50;99.90;;;;;;5117264;27;20131;-68
2023/08/28 10:10:15;;;;;;;1.60;0.52;;;21.40;99.90;;;;;;5076498;28;20047;-67
2023/08/28 10:12:42;;;;;;;0.80;0.28;;;21.30;99.90;;;;;;5075043;28;20036;-67
2023/08/28 10:15:08;;;;;;;1.85;0.30;;;21.20;99.90;;;;;;5078855;28;20064;-68
2023/08/28 10:17:35;;;;;;;3.55;0.50;;;21.10;99.90;;;;;;5100269;28;20404;-67
2023/08/28 10:20:04;;;;;;;2.50;0.30;;;20.90;99.90;;;;;;5118569;27;20055;-66
2023/08/28 10:22:32;;;;;;;1.33;0.43;;;20.90;99.90;;;;;;5081363;28;20056;-67
2023/08/28 10:24:59;;;;;;;1.83;0.43;;;21.10;99.90;;;;;;5102473;28;20040;-67
2023/08/28 10:27:25;;;;;;;2.88;0.43;;;21.40;99.90;;;;;;5083100;28;20058;-66
2023/08/28 10:29:52;;;;;;;2.97;0.28;;;21.90;99.90;;;;;;5106449;28;20062;-67
2023/08/28 10:32:20;;;;;;;3.28;1.00;;;22.30;99.90;;;;;;5101337;28;20540;-67
2023/08/28 10:34:46;;;;;;;3.33;0.47;;;22.70;99.90;;;;;;5076685;28;20524;-67
2023/08/28 10:37:13;;;;;;;1.75;0.20;;;23.00;99.90;;;;;;5082027;28;20130;-67
2023/08/28 10:39:41;;;;;;;0.80;0.22;;;23.30;99.90;;;;;;5099824;28;20031;-67
2023/08/28 10:42:15;;;;;;;1.92;0.55;;;23.60;99.90;;;;;;5080513;28;20115;-67
2023/08/28 10:44:41;;;;;;;1.50;0.20;;;23.60;99.90;;;;;;5097612;28;20059;-67
2023/08/28 10:47:07;;;;;;;1.25;0.50;;;23.20;99.90;;;;;;5077451;28;20044;-67
2023/08/28 10:49:34;;;;;;;1.33;0.28;;;22.90;99.90;;;;;;5082188;28;20043;-66
2023/08/28 10:52:06;;;;;;;1.90;0.20;;;22.60;99.90;;;;;;5099451;28;20032;-67
2023/08/28 10:55:03;;;;;;;1.58;0.57;;;22.80;99.90;;;;;;5080050;28;20047;-67
2023/08/28 10:57:29;;;;;;;1.75;0.40;;;23.00;99.90;;;;;;5100549;28;20048;-66
2023/08/28 10:59:59;;;;;;;1.05;0.40;;;23.20;99.90;;;;;;5097398;28;20046;-66
2023/08/28 11:02:25;;;;;;;1.88;0.20;;;23.40;99.90;;;;;;5104281;28;20071;-66
2023/08/28 11:04:50;;;;;;;4.05;0.77;;;23.60;99.90;;;;;;5099336;28;20070;-66
2023/08/28 11:07:25;;;;;;;0.60;0.20;;;23.70;99.90;;;;;;5097556;28;20069;-66
2023/08/28 11:10:11;;;;;;;1.83;0.38;;;23.80;99.40;;;;;;5113963;27;20490;-66
2023/08/28 11:12:53;;;;;;;;;;;23.90;99.90;;;;;;5115521;27;20115;-65
2023/08/28 11:15:30;;;;;;;1.48;0.30;;;24.30;99.90;;;;;;5095100;28;20602;-65
2023/08/28 11:18:28;;;;;;;0.85;0.30;;;24.30;99.10;;;;;;5096856;28;20040;-66
2023/08/28 11:20:59;;;;;;;2.00;0.40;;;24.00;99.10;;;;;;5097298;28;20451;-67
2023/08/28 11:23:36;;;;;;;0.82;0.25;;;23.80;99.80;;;;;;5077914;28;20035;-66
2023/08/28 11:26:22;;;;;;;0.85;0.20;;;23.50;99.90;;;;;;5078215;28;20043;-66
2023/08/28 11:28:49;;;;;;;0.85;0.20;;;23.30;99.90;;;;;;5078572;28;20556;-65
2023/08/28 11:31:15;;;;;;;1.52;0.30;;;23.10;99.90;;;;;;5063620;28;20044;-67
2023/08/28 11:33:46;;;;;;;1.08;0.40;;;23.00;99.90;;;;;;5083132;28;20035;-66
2023/08/28 11:36:14;;;;;;;1.52;0.22;;;22.90;99.90;;;;;;5096535;28;20039;-66
2023/08/28 11:38:41;;;;;;;1.85;0.43;;;22.80;99.90;;;;;;5096425;28;20039;-66
2023/08/28 11:41:10;;;;;;;1.05;0.30;;;22.60;99.90;;;;;;5100233;28;20035;-66
2023/08/28 11:43:43;;;;;;;3.00;0.85;;;22.70;99.90;;;;;;5096272;28;20044;-66
2023/08/28 11:46:11;;;;;;;1.27;0.30;;;22.60;99.90;;;;;;5077537;28;20401;-66
2023/08/28 11:48:39;;;;;;;1.85;0.30;;;22.40;99.90;;;;;;5096955;28;20051;-66
2023/08/28 11:51:08;;;;;;;0.95;0.30;;;22.30;99.90;;;;;;5098235;28;20043;-66
2023/08/28 11:53:42;;;;;;;6.47;0.65;;;22.10;99.90;;;;;;5079736;28;20375;-66
2023/08/28 11:56:10;;;;;;;1.67;0.30;;;21.90;99.90;;;;;;5075415;28;20040;-66
2023/08/28 11:58:39;;;;;;;3.83;0.52;;;21.70;99.90;;;;;;5097720;28;20101;-66
2023/08/28 12:01:07;;;;;;;0.80;0.20;;;21.80;99.90;;;;;;5063631;28;20052;-66
2023/08/28 12:03:36;;;;;;;0.82;0.30;;;21.80;99.90;;;;;;5090489;28;20058;-66
2023/08/28 12:06:07;;;;;;;1.73;0.50;;;21.80;99.90;;;;;;5102285;28;20043;-66
2023/08/28 12:08:35;;;;;;;1.17;0.40;;;21.70;99.90;;;;;;5117688;28;20044;-66
2023/08/28 12:11:01;;;;;;;2.65;0.50;;;21.70;99.90;;;;;;5107167;28;20153;-66
2023/08/28 12:13:27;;;;;;;1.77;0.65;;;21.60;99.90;;;;;;5078341;28;20043;-66
2023/08/28 12:16:15;;;;;;;2.58;0.60;;;21.60;99.90;;;;;;5096205;28;20511;-66
2023/08/28 12:18:50;;;;;;;2.60;0.30;;;21.50;99.90;;;;;;5093872;28;20040;-66
2023/08/28 12:21:18;;;;;;;2.00;0.20;;;21.50;99.90;;;;;;5083673;28;20400;-66
2023/08/28 12:23:46;;;;;;;2.92;0.40;;;21.40;99.90;;;;;;5067188;28;20047;-66
2023/08/28 12:26:11;;;;;;;1.05;0.30;;;21.30;99.90;;;;;;5103727;28;20393;-66
2023/08/28 12:28:37;;;;;;;1.40;0.30;;;21.30;99.90;;;;;;5115028;28;20051;-66
2023/08/28 12:31:02;;;;;;;1.52;0.30;;;21.50;99.90;;;;;;5072120;28;20143;-66
2023/08/28 12:33:28;;;;;;;1.42;0.35;;;21.80;99.90;;;;;;5083409;28;20032;-66
2023/08/28 12:35:54;;;;;;;0.70;0.30;;;22.10;99.90;;;;;;5110655;27;20137;-66
2023/08/28 12:38:20;;;;;;;0.25;0.20;;;22.20;99.90;;;;;;5077378;28;20040;-66
2023/08/28 12:40:50;;;;;;;1.85;0.28;;;22.40;99.90;;;;;;5100518;28;20082;-66
2023/08/28 12:43:16;;;;;;;1.10;0.40;;;22.60;99.90;;;;;;5103658;28;20040;-66
2023/08/28 12:45:42;;;;;;;1.00;0.50;;;22.80;99.90;;;;;;5101208;28;20042;-66
2023/08/28 12:48:07;;;;;;;2.97;0.30;;;22.90;99.90;;;;;;5077539;28;20087;-66
2023/08/28 12:50:35;;;;;;;3.00;0.40;;;22.80;99.90;;;;;;5095930;28;20070;-67